sensor_id;sensor_type;location;lat;lon;timestamp;P1;durP1;ratioP1;P2;durP2;ratioP2
19111;SDS011;9688;51.906;8.376;2023-04-01T00:00:08;2.33;;;1.90;;
19111;SDS011;9688;51.906;8.376;2023-04-01T00:02:56;1.67;;;1.50;;
19111;SDS011;9688;51.906;8.376;2023-04-01T00:05:41;4.20;;;1.30;;
19111;SDS011;9688;51.906;8.376;2023-04-01T00:08:27;4.67;;;1.70;;
19111;SDS011;9688;51.906;8.376;2023-04-01T00:11:13;1.70;;;1.50;;
19111;SDS011;9688;51.906;8.376;2023-04-01T00:14:00;1.97;;;1.50;;
19111;SDS011;9688;51.906;8.376;2023-04-01T00:16:46;4.30;;;1.57;;
19111;SDS011;9688;51.906;8.376;2023-04-01T00:19:33;2.17;;;1.43;;
19111;SDS011;9688;51.906;8.376;2023-04-01T00:22:19;2.53;;;1.40;;
19111;SDS011;9688;51.906;8.376;2023-04-01T00:25:05;4.37;;;2.17;;
19111;SDS011;9688;51.906;8.376;2023-04-01T00:27:51;2.93;;;1.50;;
19111;SDS011;9688;51.906;8.376;2023-04-01T00:30:37;1.80;;;1.20;;
19111;SDS011;9688;51.906;8.376;2023-04-01T00:33:23;2.80;;;1.60;;
19111;SDS011;9688;51.906;8.376;2023-04-01T00:36:11;1.93;;;1.27;;
19111;SDS011;9688;51.906;8.376;2023-04-01T00:38:57;3.97;;;1.47;;
19111;SDS011;9688;51.906;8.376;2023-04-01T00:41:44;5.17;;;1.40;;
19111;SDS011;9688;51.906;8.376;2023-04-01T00:44:31;3.47;;;1.60;;
19111;SDS011;9688;51.906;8.376;2023-04-01T00:47:18;2.87;;;1.33;;
19111;SDS011;9688;51.906;8.376;2023-04-01T00:50:05;2.93;;;1.20;;
19111;SDS011;9688;51.906;8.376;2023-04-01T00:52:53;2.53;;;1.33;;
19111;SDS011;9688;51.906;8.376;2023-04-01T00:55:41;2.20;;;1.40;;
19111;SDS011;9688;51.906;8.376;2023-04-01T00:58:32;2.07;;;1.50;;
19111;SDS011;9688;51.906;8.376;2023-04-01T01:01:25;3.07;;;1.27;;
19111;SDS011;9688;51.906;8.376;2023-04-01T01:04:20;1.30;;;1.00;;
19111;SDS011;9688;51.906;8.376;2023-04-01T01:07:11;3.10;;;1.20;;
19111;SDS011;9688;51.906;8.376;2023-04-01T01:10:13;5.37;;;1.80;;
19111;SDS011;9688;51.906;8.376;2023-04-01T01:13:08;4.47;;;1.20;;
19111;SDS011;9688;51.906;8.376;2023-04-01T01:15:59;5.03;;;1.33;;
19111;SDS011;9688;51.906;8.376;2023-04-01T01:18:50;3.40;;;1.03;;
19111;SDS011;9688;51.906;8.376;2023-04-01T01:21:49;0.77;;;0.77;;
19111;SDS011;9688;51.906;8.376;2023-04-01T01:24:54;1.77;;;0.97;;
19111;SDS011;9688;51.906;8.376;2023-04-01T01:27:56;0.90;;;0.90;;
19111;SDS011;9688;51.906;8.376;2023-04-01T01:30:50;1.43;;;0.90;;
19111;SDS011;9688;51.906;8.376;2023-04-01T01:33:45;1.43;;;0.90;;
19111;SDS011;9688;51.906;8.376;2023-04-01T01:36:43;1.57;;;1.10;;
19111;SDS011;9688;51.906;8.376;2023-04-01T01:39:31;0.73;;;0.73;;
19111;SDS011;9688;51.906;8.376;2023-04-01T01:42:19;4.63;;;1.10;;
19111;SDS011;9688;51.906;8.376;2023-04-01T01:45:08;2.33;;;0.73;;
19111;SDS011;9688;51.906;8.376;2023-04-01T01:47:57;0.90;;;0.90;;
19111;SDS011;9688;51.906;8.376;2023-04-01T01:50:46;1.30;;;1.03;;
19111;SDS011;9688;51.906;8.376;2023-04-01T01:53:38;1.40;;;0.90;;
19111;SDS011;9688;51.906;8.376;2023-04-01T01:56:24;1.13;;;1.07;;
19111;SDS011;9688;51.906;8.376;2023-04-01T01:59:13;0.83;;;0.67;;
19111;SDS011;9688;51.906;8.376;2023-04-01T02:02:01;0.90;;;0.90;;
19111;SDS011;9688;51.906;8.376;2023-04-01T02:04:51;0.93;;;0.60;;
19111;SDS011;9688;51.906;8.376;2023-04-01T02:07:38;1.83;;;0.90;;
19111;SDS011;9688;51.906;8.376;2023-04-01T02:10:30;1.70;;;0.80;;
19111;SDS011;9688;51.906;8.376;2023-04-01T02:13:21;1.70;;;0.80;;
19111;SDS011;9688;51.906;8.376;2023-04-01T02:16:13;2.10;;;0.93;;
19111;SDS011;9688;51.906;8.376;2023-04-01T02:19:05;3.40;;;1.10;;
19111;SDS011;9688;51.906;8.376;2023-04-01T02:21:54;2.00;;;0.80;;
19111;SDS011;9688;51.906;8.376;2023-04-01T02:24:42;2.13;;;0.90;;
19111;SDS011;9688;51.906;8.376;2023-04-01T02:27:30;0.77;;;0.77;;
19111;SDS011;9688;51.906;8.376;2023-04-01T02:30:17;1.83;;;0.70;;
19111;SDS011;9688;51.906;8.376;2023-04-01T02:33:04;1.90;;;0.90;;
19111;SDS011;9688;51.906;8.376;2023-04-01T02:35:50;1.23;;;0.60;;
19111;SDS011;9688;51.906;8.376;2023-04-01T02:38:36;4.23;;;0.80;;
19111;SDS011;9688;51.906;8.376;2023-04-01T02:41:22;0.90;;;0.80;;
19111;SDS011;9688;51.906;8.376;2023-04-01T02:44:09;1.83;;;0.80;;
19111;SDS011;9688;51.906;8.376;2023-04-01T02:46:56;2.83;;;0.80;;
19111;SDS011;9688;51.906;8.376;2023-04-01T02:49:41;2.57;;;1.17;;
19111;SDS011;9688;51.906;8.376;2023-04-01T02:52:30;1.13;;;0.70;;
19111;SDS011;9688;51.906;8.376;2023-04-01T02:55:15;2.07;;;0.87;;
19111;SDS011;9688;51.906;8.376;2023-04-01T02:58:01;1.13;;;0.83;;
19111;SDS011;9688;51.906;8.376;2023-04-01T03:00:48;0.53;;;0.53;;
19111;SDS011;9688;51.906;8.376;2023-04-01T03:03:33;1.13;;;0.80;;
19111;SDS011;9688;51.906;8.376;2023-04-01T03:06:19;0.93;;;0.70;;
19111;SDS011;9688;51.906;8.376;2023-04-01T03:09:04;1.83;;;0.60;;
19111;SDS011;9688;51.906;8.376;2023-04-01T03:11:50;1.67;;;0.70;;
19111;SDS011;9688;51.906;8.376;2023-04-01T03:14:36;0.90;;;0.80;;
19111;SDS011;9688;51.906;8.376;2023-04-01T03:17:23;0.80;;;0.70;;
19111;SDS011;9688;51.906;8.376;2023-04-01T03:20:10;3.63;;;0.73;;
19111;SDS011;9688;51.906;8.376;2023-04-01T03:22:59;1.07;;;0.70;;
19111;SDS011;9688;51.906;8.376;2023-04-01T03:25:44;0.60;;;0.60;;
19111;SDS011;9688;51.906;8.376;2023-04-01T03:28:30;0.70;;;0.70;;
19111;SDS011;9688;51.906;8.376;2023-04-01T03:31:16;2.73;;;0.60;;
19111;SDS011;9688;51.906;8.376;2023-04-01T03:34:03;0.60;;;0.60;;
19111;SDS011;9688;51.906;8.376;2023-04-01T03:36:49;1.10;;;0.67;;
19111;SDS011;9688;51.906;8.376;2023-04-01T03:39:35;1.60;;;0.70;;
19111;SDS011;9688;51.906;8.376;2023-04-01T03:42:21;1.37;;;0.70;;
19111;SDS011;9688;51.906;8.376;2023-04-01T03:45:07;0.60;;;0.60;;
19111;SDS011;9688;51.906;8.376;2023-04-01T03:47:53;0.70;;;0.70;;
19111;SDS011;9688;51.906;8.376;2023-04-01T03:50:42;1.53;;;0.80;;
19111;SDS011;9688;51.906;8.376;2023-04-01T03:53:29;0.63;;;0.60;;
19111;SDS011;9688;51.906;8.376;2023-04-01T03:56:15;0.73;;;0.60;;
19111;SDS011;9688;51.906;8.376;2023-04-01T03:59:01;3.67;;;0.70;;
19111;SDS011;9688;51.906;8.376;2023-04-01T04:01:48;0.80;;;0.80;;
19111;SDS011;9688;51.906;8.376;2023-04-01T04:04:33;1.90;;;0.60;;
19111;SDS011;9688;51.906;8.376;2023-04-01T04:07:21;0.60;;;0.50;;
19111;SDS011;9688;51.906;8.376;2023-04-01T04:10:07;1.43;;;0.70;;
19111;SDS011;9688;51.906;8.376;2023-04-01T04:12:53;0.67;;;0.60;;
19111;SDS011;9688;51.906;8.376;2023-04-01T04:15:39;1.90;;;0.60;;
19111;SDS011;9688;51.906;8.376;2023-04-01T04:18:24;0.80;;;0.80;;
19111;SDS011;9688;51.906;8.376;2023-04-01T04:21:11;1.40;;;0.80;;
19111;SDS011;9688;51.906;8.376;2023-04-01T04:23:59;1.13;;;0.97;;
19111;SDS011;9688;51.906;8.376;2023-04-01T04:26:45;1.17;;;0.60;;
19111;SDS011;9688;51.906;8.376;2023-04-01T04:29:30;0.60;;;0.60;;
19111;SDS011;9688;51.906;8.376;2023-04-01T04:32:16;2.03;;;0.60;;
19111;SDS011;9688;51.906;8.376;2023-04-01T04:35:02;0.80;;;0.80;;
19111;SDS011;9688;51.906;8.376;2023-04-01T04:37:50;1.73;;;0.77;;
19111;SDS011;9688;51.906;8.376;2023-04-01T04:40:37;0.70;;;0.67;;
19111;SDS011;9688;51.906;8.376;2023-04-01T04:43:23;0.90;;;0.70;;
19111;SDS011;9688;51.906;8.376;2023-04-01T04:46:09;1.10;;;0.87;;
19111;SDS011;9688;51.906;8.376;2023-04-01T04:48:56;0.90;;;0.70;;
19111;SDS011;9688;51.906;8.376;2023-04-01T04:51:42;0.50;;;0.50;;
19111;SDS011;9688;51.906;8.376;2023-04-01T04:54:29;0.70;;;0.70;;
19111;SDS011;9688;51.906;8.376;2023-04-01T04:57:15;0.63;;;0.63;;
19111;SDS011;9688;51.906;8.376;2023-04-01T05:00:04;0.93;;;0.93;;
19111;SDS011;9688;51.906;8.376;2023-04-01T05:02:51;0.60;;;0.60;;
19111;SDS011;9688;51.906;8.376;2023-04-01T05:05:37;1.87;;;1.27;;
19111;SDS011;9688;51.906;8.376;2023-04-01T05:08:23;1.27;;;0.90;;
19111;SDS011;9688;51.906;8.376;2023-04-01T05:11:09;0.63;;;0.63;;
19111;SDS011;9688;51.906;8.376;2023-04-01T05:13:58;0.60;;;0.60;;
19111;SDS011;9688;51.906;8.376;2023-04-01T05:16:43;0.83;;;0.83;;
19111;SDS011;9688;51.906;8.376;2023-04-01T05:19:30;0.83;;;0.80;;
19111;SDS011;9688;51.906;8.376;2023-04-01T05:22:16;0.90;;;0.90;;
19111;SDS011;9688;51.906;8.376;2023-04-01T05:25:02;2.33;;;0.90;;
19111;SDS011;9688;51.906;8.376;2023-04-01T05:27:48;0.80;;;0.80;;
19111;SDS011;9688;51.906;8.376;2023-04-01T05:30:35;1.03;;;0.70;;
19111;SDS011;9688;51.906;8.376;2023-04-01T05:33:20;0.53;;;0.53;;
19111;SDS011;9688;51.906;8.376;2023-04-01T05:36:06;0.63;;;0.63;;
19111;SDS011;9688;51.906;8.376;2023-04-01T05:38:54;0.77;;;0.77;;
19111;SDS011;9688;51.906;8.376;2023-04-01T05:41:43;0.70;;;0.70;;
19111;SDS011;9688;51.906;8.376;2023-04-01T05:44:29;1.20;;;1.10;;
19111;SDS011;9688;51.906;8.376;2023-04-01T05:47:16;2.17;;;1.47;;
19111;SDS011;9688;51.906;8.376;2023-04-01T05:50:07;1.63;;;1.10;;
19111;SDS011;9688;51.906;8.376;2023-04-01T05:52:54;0.80;;;0.80;;
19111;SDS011;9688;51.906;8.376;2023-04-01T05:55:40;2.03;;;0.87;;
19111;SDS011;9688;51.906;8.376;2023-04-01T05:58:25;0.97;;;0.80;;
19111;SDS011;9688;51.906;8.376;2023-04-01T06:01:12;0.60;;;0.60;;
19111;SDS011;9688;51.906;8.376;2023-04-01T06:03:58;0.87;;;0.83;;
19111;SDS011;9688;51.906;8.376;2023-04-01T06:06:44;0.73;;;0.67;;
19111;SDS011;9688;51.906;8.376;2023-04-01T06:09:30;0.60;;;0.60;;
19111;SDS011;9688;51.906;8.376;2023-04-01T06:15:33;0.87;;;0.70;;
19111;SDS011;9688;51.906;8.376;2023-04-01T06:21:37;0.90;;;0.90;;
19111;SDS011;9688;51.906;8.376;2023-04-01T06:24:46;1.47;;;0.70;;
19111;SDS011;9688;51.906;8.376;2023-04-01T06:27:53;3.40;;;1.63;;
19111;SDS011;9688;51.906;8.376;2023-04-01T06:30:49;1.23;;;1.13;;
19111;SDS011;9688;51.906;8.376;2023-04-01T06:33:54;1.30;;;1.20;;
19111;SDS011;9688;51.906;8.376;2023-04-01T06:36:52;1.30;;;1.20;;
19111;SDS011;9688;51.906;8.376;2023-04-01T06:39:55;1.17;;;1.17;;
19111;SDS011;9688;51.906;8.376;2023-04-01T06:42:57;1.30;;;1.23;;
19111;SDS011;9688;51.906;8.376;2023-04-01T06:45:53;1.30;;;1.20;;
19111;SDS011;9688;51.906;8.376;2023-04-01T06:48:52;1.90;;;1.60;;
19111;SDS011;9688;51.906;8.376;2023-04-01T06:51:52;2.07;;;1.30;;
19111;SDS011;9688;51.906;8.376;2023-04-01T06:54:45;1.80;;;1.50;;
19111;SDS011;9688;51.906;8.376;2023-04-01T06:57:36;2.47;;;1.33;;
19111;SDS011;9688;51.906;8.376;2023-04-01T07:00:31;3.77;;;1.30;;
19111;SDS011;9688;51.906;8.376;2023-04-01T07:03:26;1.30;;;1.20;;
19111;SDS011;9688;51.906;8.376;2023-04-01T07:06:19;1.70;;;1.07;;
19111;SDS011;9688;51.906;8.376;2023-04-01T07:09:14;1.80;;;1.20;;
19111;SDS011;9688;51.906;8.376;2023-04-01T07:12:10;1.00;;;1.00;;
19111;SDS011;9688;51.906;8.376;2023-04-01T07:15:05;1.50;;;1.30;;
19111;SDS011;9688;51.906;8.376;2023-04-01T07:18:02;1.83;;;1.73;;
19111;SDS011;9688;51.906;8.376;2023-04-01T07:20:54;1.73;;;1.63;;
19111;SDS011;9688;51.906;8.376;2023-04-01T07:23:42;1.90;;;1.27;;
19111;SDS011;9688;51.906;8.376;2023-04-01T07:26:32;1.93;;;1.20;;
19111;SDS011;9688;51.906;8.376;2023-04-01T07:29:19;2.53;;;1.20;;
19111;SDS011;9688;51.906;8.376;2023-04-01T07:32:09;1.13;;;1.13;;
19111;SDS011;9688;51.906;8.376;2023-04-01T07:35:04;1.50;;;1.20;;
19111;SDS011;9688;51.906;8.376;2023-04-01T07:37:59;0.70;;;0.70;;
19111;SDS011;9688;51.906;8.376;2023-04-01T07:40:57;2.40;;;1.13;;
19111;SDS011;9688;51.906;8.376;2023-04-01T07:43:59;1.00;;;1.00;;
19111;SDS011;9688;51.906;8.376;2023-04-01T07:46:55;1.10;;;1.07;;
19111;SDS011;9688;51.906;8.376;2023-04-01T07:49:59;1.30;;;1.20;;
19111;SDS011;9688;51.906;8.376;2023-04-01T07:53:02;1.23;;;1.10;;
19111;SDS011;9688;51.906;8.376;2023-04-01T07:55:58;1.10;;;1.10;;
19111;SDS011;9688;51.906;8.376;2023-04-01T07:58:52;1.17;;;1.10;;
19111;SDS011;9688;51.906;8.376;2023-04-01T08:01:49;1.93;;;0.90;;
19111;SDS011;9688;51.906;8.376;2023-04-01T08:04:48;0.90;;;0.90;;
19111;SDS011;9688;51.906;8.376;2023-04-01T08:07:44;0.80;;;0.80;;
19111;SDS011;9688;51.906;8.376;2023-04-01T08:10:36;1.90;;;1.20;;
19111;SDS011;9688;51.906;8.376;2023-04-01T08:13:31;1.10;;;1.10;;
19111;SDS011;9688;51.906;8.376;2023-04-01T08:16:28;1.10;;;1.10;;
19111;SDS011;9688;51.906;8.376;2023-04-01T08:19:28;1.47;;;1.00;;
19111;SDS011;9688;51.906;8.376;2023-04-01T08:22:26;2.10;;;1.37;;
19111;SDS011;9688;51.906;8.376;2023-04-01T08:25:16;1.93;;;1.00;;
19111;SDS011;9688;51.906;8.376;2023-04-01T08:28:09;1.00;;;1.00;;
19111;SDS011;9688;51.906;8.376;2023-04-01T08:31:02;1.03;;;1.03;;
19111;SDS011;9688;51.906;8.376;2023-04-01T08:33:50;1.00;;;1.00;;
19111;SDS011;9688;51.906;8.376;2023-04-01T08:36:41;0.70;;;0.70;;
19111;SDS011;9688;51.906;8.376;2023-04-01T08:39:30;1.10;;;1.10;;
19111;SDS011;9688;51.906;8.376;2023-04-01T08:42:27;0.90;;;0.90;;
19111;SDS011;9688;51.906;8.376;2023-04-01T08:45:38;0.90;;;0.90;;
19111;SDS011;9688;51.906;8.376;2023-04-01T08:48:45;1.33;;;1.00;;
19111;SDS011;9688;51.906;8.376;2023-04-01T08:55:14;1.20;;;1.20;;
19111;SDS011;9688;51.906;8.376;2023-04-01T08:58:19;1.00;;;1.00;;
19111;SDS011;9688;51.906;8.376;2023-04-01T09:08:27;1.10;;;1.10;;
19111;SDS011;9688;51.906;8.376;2023-04-01T09:11:31;1.20;;;1.20;;
19111;SDS011;9688;51.906;8.376;2023-04-01T09:14:33;1.10;;;1.10;;
19111;SDS011;9688;51.906;8.376;2023-04-01T09:20:53;3.03;;;1.30;;
19111;SDS011;9688;51.906;8.376;2023-04-01T09:24:03;2.30;;;1.37;;
19111;SDS011;9688;51.906;8.376;2023-04-01T09:27:04;1.20;;;1.20;;
19111;SDS011;9688;51.906;8.376;2023-04-01T09:36:50;1.87;;;1.20;;
19111;SDS011;9688;51.906;8.376;2023-04-01T09:40:02;1.77;;;1.33;;
19111;SDS011;9688;51.906;8.376;2023-04-01T09:43:18;1.33;;;1.07;;
19111;SDS011;9688;51.906;8.376;2023-04-01T09:46:22;3.07;;;1.13;;
19111;SDS011;9688;51.906;8.376;2023-04-01T09:52:44;0.90;;;0.90;;
19111;SDS011;9688;51.906;8.376;2023-04-01T09:55:53;0.80;;;0.80;;
19111;SDS011;9688;51.906;8.376;2023-04-01T10:02:36;0.87;;;0.87;;
19111;SDS011;9688;51.906;8.376;2023-04-01T10:05:54;1.10;;;1.10;;
19111;SDS011;9688;51.906;8.376;2023-04-01T10:09:11;0.90;;;0.90;;
19111;SDS011;9688;51.906;8.376;2023-04-01T10:16:21;1.30;;;1.23;;
19111;SDS011;9688;51.906;8.376;2023-04-01T10:19:35;1.70;;;1.50;;
19111;SDS011;9688;51.906;8.376;2023-04-01T10:29:22;1.47;;;1.20;;
19111;SDS011;9688;51.906;8.376;2023-04-01T10:32:52;1.90;;;1.20;;
19111;SDS011;9688;51.906;8.376;2023-04-01T10:49:40;2.57;;;1.30;;
19111;SDS011;9688;51.906;8.376;2023-04-01T10:52:57;1.30;;;1.20;;
19111;SDS011;9688;51.906;8.376;2023-04-01T10:56:24;1.30;;;1.30;;
19111;SDS011;9688;51.906;8.376;2023-04-01T11:13:26;1.40;;;1.30;;
19111;SDS011;9688;51.906;8.376;2023-04-01T11:23:29;1.20;;;1.20;;
19111;SDS011;9688;51.906;8.376;2023-04-01T11:26:30;2.30;;;1.93;;
19111;SDS011;9688;51.906;8.376;2023-04-01T11:32:39;1.70;;;1.60;;
19111;SDS011;9688;51.906;8.376;2023-04-01T11:35:45;1.53;;;1.40;;
19111;SDS011;9688;51.906;8.376;2023-04-01T11:38:51;1.43;;;1.40;;
19111;SDS011;9688;51.906;8.376;2023-04-01T11:41:46;1.20;;;1.20;;
19111;SDS011;9688;51.906;8.376;2023-04-01T11:44:43;1.10;;;1.10;;
19111;SDS011;9688;51.906;8.376;2023-04-01T11:47:50;1.23;;;1.23;;
19111;SDS011;9688;51.906;8.376;2023-04-01T11:50:52;1.30;;;1.30;;
19111;SDS011;9688;51.906;8.376;2023-04-01T11:53:54;1.33;;;1.20;;
19111;SDS011;9688;51.906;8.376;2023-04-01T11:56:55;1.33;;;1.33;;
19111;SDS011;9688;51.906;8.376;2023-04-01T12:03:15;1.90;;;1.80;;
19111;SDS011;9688;51.906;8.376;2023-04-01T12:06:16;1.80;;;1.80;;
19111;SDS011;9688;51.906;8.376;2023-04-01T12:09:12;1.70;;;1.60;;
19111;SDS011;9688;51.906;8.376;2023-04-01T12:12:11;3.03;;;2.00;;
19111;SDS011;9688;51.906;8.376;2023-04-01T12:15:10;1.80;;;1.80;;
19111;SDS011;9688;51.906;8.376;2023-04-01T12:18:11;1.70;;;1.70;;
19111;SDS011;9688;51.906;8.376;2023-04-01T12:21:11;1.73;;;1.37;;
19111;SDS011;9688;51.906;8.376;2023-04-01T12:27:29;1.57;;;1.47;;
19111;SDS011;9688;51.906;8.376;2023-04-01T12:30:26;1.70;;;1.60;;
19111;SDS011;9688;51.906;8.376;2023-04-01T12:36:46;2.40;;;2.00;;
19111;SDS011;9688;51.906;8.376;2023-04-01T12:39:47;2.90;;;2.23;;
19111;SDS011;9688;51.906;8.376;2023-04-01T12:42:54;2.40;;;1.90;;
19111;SDS011;9688;51.906;8.376;2023-04-01T12:45:54;2.07;;;1.97;;
19111;SDS011;9688;51.906;8.376;2023-04-01T12:49:02;2.27;;;2.17;;
19111;SDS011;9688;51.906;8.376;2023-04-01T12:52:04;2.10;;;2.00;;
19111;SDS011;9688;51.906;8.376;2023-04-01T12:58:28;2.83;;;2.63;;
19111;SDS011;9688;51.906;8.376;2023-04-01T13:01:50;2.23;;;2.13;;
19111;SDS011;9688;51.906;8.376;2023-04-01T13:08:26;3.20;;;2.70;;
19111;SDS011;9688;51.906;8.376;2023-04-01T13:11:27;3.00;;;2.80;;
19111;SDS011;9688;51.906;8.376;2023-04-01T13:17:43;3.40;;;3.10;;
19111;SDS011;9688;51.906;8.376;2023-04-01T13:20:41;3.00;;;2.80;;
19111;SDS011;9688;51.906;8.376;2023-04-01T13:23:35;3.00;;;2.80;;
19111;SDS011;9688;51.906;8.376;2023-04-01T13:26:36;3.10;;;2.80;;
19111;SDS011;9688;51.906;8.376;2023-04-01T13:29:33;3.00;;;2.80;;
19111;SDS011;9688;51.906;8.376;2023-04-01T13:32:26;2.70;;;2.50;;
19111;SDS011;9688;51.906;8.376;2023-04-01T13:35:23;3.20;;;3.00;;
19111;SDS011;9688;51.906;8.376;2023-04-01T13:38:37;2.50;;;2.40;;
19111;SDS011;9688;51.906;8.376;2023-04-01T13:41:40;2.53;;;2.43;;
19111;SDS011;9688;51.906;8.376;2023-04-01T13:44:36;2.90;;;2.70;;
19111;SDS011;9688;51.906;8.376;2023-04-01T13:54:12;2.43;;;2.33;;
19111;SDS011;9688;51.906;8.376;2023-04-01T13:57:27;2.50;;;2.40;;
19111;SDS011;9688;51.906;8.376;2023-04-01T14:00:35;2.67;;;2.50;;
19111;SDS011;9688;51.906;8.376;2023-04-01T14:03:30;2.80;;;2.60;;
19111;SDS011;9688;51.906;8.376;2023-04-01T14:06:31;2.37;;;2.27;;
19111;SDS011;9688;51.906;8.376;2023-04-01T14:12:51;2.83;;;2.63;;
19111;SDS011;9688;51.906;8.376;2023-04-01T14:15:56;2.90;;;2.70;;
19111;SDS011;9688;51.906;8.376;2023-04-01T14:18:58;2.87;;;2.77;;
19111;SDS011;9688;51.906;8.376;2023-04-01T14:21:57;3.03;;;2.83;;
19111;SDS011;9688;51.906;8.376;2023-04-01T14:24:55;3.10;;;2.90;;
19111;SDS011;9688;51.906;8.376;2023-04-01T14:27:58;3.23;;;3.03;;
19111;SDS011;9688;51.906;8.376;2023-04-01T14:30:58;3.47;;;3.17;;
19111;SDS011;9688;51.906;8.376;2023-04-01T14:34:03;3.57;;;3.27;;
19111;SDS011;9688;51.906;8.376;2023-04-01T14:37:17;3.57;;;3.37;;
19111;SDS011;9688;51.906;8.376;2023-04-01T14:40:26;3.40;;;3.03;;
19111;SDS011;9688;51.906;8.376;2023-04-01T14:43:16;2.70;;;2.60;;
19111;SDS011;9688;51.906;8.376;2023-04-01T14:46:17;2.70;;;2.60;;
19111;SDS011;9688;51.906;8.376;2023-04-01T14:49:23;2.60;;;2.50;;
19111;SDS011;9688;51.906;8.376;2023-04-01T14:52:26;3.50;;;2.63;;
19111;SDS011;9688;51.906;8.376;2023-04-01T14:55:25;2.60;;;2.40;;
19111;SDS011;9688;51.906;8.376;2023-04-01T14:58:17;2.53;;;2.43;;
19111;SDS011;9688;51.906;8.376;2023-04-01T15:01:09;2.53;;;2.33;;
19111;SDS011;9688;51.906;8.376;2023-04-01T15:04:13;2.30;;;2.20;;
19111;SDS011;9688;51.906;8.376;2023-04-01T15:10:58;2.40;;;2.30;;
19111;SDS011;9688;51.906;8.376;2023-04-01T15:13:58;2.53;;;2.37;;
19111;SDS011;9688;51.906;8.376;2023-04-01T15:17:03;2.83;;;2.60;;
19111;SDS011;9688;51.906;8.376;2023-04-01T15:20:18;2.93;;;2.73;;
19111;SDS011;9688;51.906;8.376;2023-04-01T15:23:19;2.70;;;2.60;;
19111;SDS011;9688;51.906;8.376;2023-04-01T15:26:15;2.90;;;2.80;;
19111;SDS011;9688;51.906;8.376;2023-04-01T15:29:26;3.00;;;2.70;;
19111;SDS011;9688;51.906;8.376;2023-04-01T15:32:21;3.00;;;2.70;;
19111;SDS011;9688;51.906;8.376;2023-04-01T15:35:21;3.60;;;3.10;;
19111;SDS011;9688;51.906;8.376;2023-04-01T15:38:26;3.33;;;3.10;;
19111;SDS011;9688;51.906;8.376;2023-04-01T15:41:22;3.57;;;3.27;;
19111;SDS011;9688;51.906;8.376;2023-04-01T15:44:26;4.00;;;3.60;;
19111;SDS011;9688;51.906;8.376;2023-04-01T15:47:32;4.23;;;3.93;;
19111;SDS011;9688;51.906;8.376;2023-04-01T15:50:32;5.03;;;3.57;;
19111;SDS011;9688;51.906;8.376;2023-04-01T15:53:33;4.67;;;4.20;;
19111;SDS011;9688;51.906;8.376;2023-04-01T15:56:36;4.83;;;4.10;;
19111;SDS011;9688;51.906;8.376;2023-04-01T15:59:41;5.50;;;5.10;;
19111;SDS011;9688;51.906;8.376;2023-04-01T16:02:44;6.57;;;5.40;;
19111;SDS011;9688;51.906;8.376;2023-04-01T16:05:37;5.37;;;4.20;;
19111;SDS011;9688;51.906;8.376;2023-04-01T16:11:48;3.90;;;3.60;;
19111;SDS011;9688;51.906;8.376;2023-04-01T16:14:41;4.77;;;4.33;;
19111;SDS011;9688;51.906;8.376;2023-04-01T16:17:46;8.43;;;4.23;;
19111;SDS011;9688;51.906;8.376;2023-04-01T16:20:51;8.37;;;5.17;;
19111;SDS011;9688;51.906;8.376;2023-04-01T16:23:42;6.90;;;4.40;;
19111;SDS011;9688;51.906;8.376;2023-04-01T16:26:34;5.93;;;4.90;;
19111;SDS011;9688;51.906;8.376;2023-04-01T16:29:29;5.13;;;4.63;;
19111;SDS011;9688;51.906;8.376;2023-04-01T16:32:34;7.10;;;5.70;;
19111;SDS011;9688;51.906;8.376;2023-04-01T16:35:34;9.63;;;5.80;;
19111;SDS011;9688;51.906;8.376;2023-04-01T16:38:32;12.33;;;7.73;;
19111;SDS011;9688;51.906;8.376;2023-04-01T16:41:24;11.23;;;7.07;;
19111;SDS011;9688;51.906;8.376;2023-04-01T16:44:17;8.77;;;6.63;;
19111;SDS011;9688;51.906;8.376;2023-04-01T16:47:06;12.17;;;6.73;;
19111;SDS011;9688;51.906;8.376;2023-04-01T16:49:58;9.83;;;7.13;;
19111;SDS011;9688;51.906;8.376;2023-04-01T16:52:56;10.87;;;6.47;;
19111;SDS011;9688;51.906;8.376;2023-04-01T16:55:50;9.40;;;6.50;;
19111;SDS011;9688;51.906;8.376;2023-04-01T16:58:54;10.07;;;6.40;;
19111;SDS011;9688;51.906;8.376;2023-04-01T17:01:47;10.70;;;6.70;;
19111;SDS011;9688;51.906;8.376;2023-04-01T17:04:38;20.40;;;8.13;;
19111;SDS011;9688;51.906;8.376;2023-04-01T17:07:33;16.60;;;9.17;;
19111;SDS011;9688;51.906;8.376;2023-04-01T17:10:32;17.90;;;9.63;;
19111;SDS011;9688;51.906;8.376;2023-04-01T17:13:31;18.43;;;10.57;;
19111;SDS011;9688;51.906;8.376;2023-04-01T17:16:24;17.60;;;9.93;;
19111;SDS011;9688;51.906;8.376;2023-04-01T17:19:23;12.13;;;8.50;;
19111;SDS011;9688;51.906;8.376;2023-04-01T17:22:22;12.27;;;8.20;;
19111;SDS011;9688;51.906;8.376;2023-04-01T17:28:36;13.03;;;9.33;;
19111;SDS011;9688;51.906;8.376;2023-04-01T17:31:35;12.63;;;9.00;;
19111;SDS011;9688;51.906;8.376;2023-04-01T17:34:43;18.87;;;10.30;;
19111;SDS011;9688;51.906;8.376;2023-04-01T17:37:41;14.53;;;10.20;;
19111;SDS011;9688;51.906;8.376;2023-04-01T17:40:40;10.07;;;7.80;;
19111;SDS011;9688;51.906;8.376;2023-04-01T17:43:39;4.73;;;4.33;;
19111;SDS011;9688;51.906;8.376;2023-04-01T17:46:36;4.23;;;3.83;;
19111;SDS011;9688;51.906;8.376;2023-04-01T17:49:31;3.07;;;2.77;;
19111;SDS011;9688;51.906;8.376;2023-04-01T17:52:24;3.30;;;2.77;;
19111;SDS011;9688;51.906;8.376;2023-04-01T17:58:29;4.07;;;2.80;;
19111;SDS011;9688;51.906;8.376;2023-04-01T18:01:33;6.20;;;3.60;;
19111;SDS011;9688;51.906;8.376;2023-04-01T18:04:36;8.77;;;5.40;;
19111;SDS011;9688;51.906;8.376;2023-04-01T18:07:46;7.13;;;4.67;;
19111;SDS011;9688;51.906;8.376;2023-04-01T18:10:57;4.60;;;3.77;;
19111;SDS011;9688;51.906;8.376;2023-04-01T18:14:00;4.63;;;3.67;;
19111;SDS011;9688;51.906;8.376;2023-04-01T18:17:23;11.87;;;6.40;;
19111;SDS011;9688;51.906;8.376;2023-04-01T18:20:23;13.27;;;7.10;;
19111;SDS011;9688;51.906;8.376;2023-04-01T18:23:20;15.47;;;8.23;;
19111;SDS011;9688;51.906;8.376;2023-04-01T18:26:13;9.70;;;5.10;;
19111;SDS011;9688;51.906;8.376;2023-04-01T18:29:11;8.87;;;4.40;;
19111;SDS011;9688;51.906;8.376;2023-04-01T18:35:21;2.90;;;2.60;;
19111;SDS011;9688;51.906;8.376;2023-04-01T18:38:13;2.77;;;2.17;;
19111;SDS011;9688;51.906;8.376;2023-04-01T18:41:11;5.03;;;3.33;;
19111;SDS011;9688;51.906;8.376;2023-04-01T18:44:03;5.27;;;3.27;;
19111;SDS011;9688;51.906;8.376;2023-04-01T18:47:05;11.33;;;5.20;;
19111;SDS011;9688;51.906;8.376;2023-04-01T18:50:07;5.93;;;3.30;;
19111;SDS011;9688;51.906;8.376;2023-04-01T18:53:09;1.90;;;1.80;;
19111;SDS011;9688;51.906;8.376;2023-04-01T18:56:02;2.50;;;2.07;;
19111;SDS011;9688;51.906;8.376;2023-04-01T18:58:50;3.07;;;2.77;;
19111;SDS011;9688;51.906;8.376;2023-04-01T19:01:41;4.00;;;3.10;;
19111;SDS011;9688;51.906;8.376;2023-04-01T19:04:36;2.90;;;2.43;;
19111;SDS011;9688;51.906;8.376;2023-04-01T19:07:45;11.93;;;4.70;;
19111;SDS011;9688;51.906;8.376;2023-04-01T19:10:36;2.40;;;2.20;;
19111;SDS011;9688;51.906;8.376;2023-04-01T19:13:35;13.53;;;5.20;;
19111;SDS011;9688;51.906;8.376;2023-04-01T19:16:36;8.43;;;4.33;;
19111;SDS011;9688;51.906;8.376;2023-04-01T19:19:33;23.07;;;8.37;;
19111;SDS011;9688;51.906;8.376;2023-04-01T19:22:34;33.07;;;11.67;;
19111;SDS011;9688;51.906;8.376;2023-04-01T19:25:34;24.53;;;8.80;;
19111;SDS011;9688;51.906;8.376;2023-04-01T19:28:26;26.03;;;9.97;;
19111;SDS011;9688;51.906;8.376;2023-04-01T19:31:25;25.43;;;8.20;;
19111;SDS011;9688;51.906;8.376;2023-04-01T19:34:25;16.10;;;6.03;;
19111;SDS011;9688;51.906;8.376;2023-04-01T19:37:22;27.13;;;10.87;;
19111;SDS011;9688;51.906;8.376;2023-04-01T19:40:21;7.20;;;3.13;;
19111;SDS011;9688;51.906;8.376;2023-04-01T19:43:29;3.50;;;2.77;;
19111;SDS011;9688;51.906;8.376;2023-04-01T19:46:35;13.27;;;4.23;;
19111;SDS011;9688;51.906;8.376;2023-04-01T19:49:29;30.93;;;9.00;;
19111;SDS011;9688;51.906;8.376;2023-04-01T19:52:28;7.20;;;3.17;;
19111;SDS011;9688;51.906;8.376;2023-04-01T19:55:22;31.33;;;10.47;;
19111;SDS011;9688;51.906;8.376;2023-04-01T19:58:20;28.70;;;8.67;;
19111;SDS011;9688;51.906;8.376;2023-04-01T20:01:12;34.53;;;10.60;;